Time;durP1;ratioP1;P1;durP2;ratioP2;P2;SDS_P1;SDS_P2;PMS_P1;PMS_P2;Temp;Humidity;BMP_temperature;BMP_pressure;BME280_temperature;BME280_humidity;BME280_pressure;Samples;Min_cycle;Max_cycle;Signal;HPM_P1;HPM_P2
2023/03/26 00:04:13;;;;;;;13.35;3.85;;;;;;;6.72;100.00;100441.50;10606980;27;20042;-87
2023/03/26 00:09:14;;;;;;;14.30;3.40;;;;;;;6.74;100.00;100455.75;10573646;27;20051;-86
2023/03/26 00:14:16;;;;;;;21.15;4.25;;;;;;;6.79;100.00;100468.72;10577755;27;20027;-83
2023/03/26 00:19:16;;;;;;;25.35;4.43;;;;;;;6.85;100.00;100463.09;10595131;27;20047;-86
2023/03/26 00:24:18;;;;;;;15.57;3.55;;;;;;;6.62;100.00;100425.66;10586677;27;20397;-86
2023/03/26 00:29:21;;;;;;;13.48;3.33;;;;;;;6.42;100.00;100403.31;10567832;27;20434;-87
2023/03/26 00:34:23;;;;;;;20.92;3.88;;;;;;;6.84;100.00;100477.03;10586412;27;20040;-86
2023/03/26 00:39:26;;;;;;;16.02;3.45;;;;;;;6.79;100.00;100460.50;10550796;27;20040;-87
2023/03/26 00:44:27;;;;;;;20.33;3.75;;;;;;;6.87;100.00;100468.34;10555956;28;20080;-86
2023/03/26 00:49:29;;;;;;;21.23;5.68;;;;;;;6.90;100.00;100472.50;10585530;27;20046;-86
2023/03/26 00:54:30;;;;;;;13.48;3.20;;;;;;;6.79;100.00;100468.72;10580128;27;20035;-86
2023/03/26 00:59:34;;;;;;;18.38;4.20;;;;;;;6.65;100.00;100457.19;10585273;27;20089;-86
2023/03/26 01:04:36;;;;;;;14.60;3.25;;;;;;;6.60;100.00;100468.00;10590162;28;20087;-84
2023/03/26 01:09:41;;;;;;;15.73;3.00;;;;;;;6.66;100.00;100467.88;10563850;27;20099;-87
2023/03/26 01:14:42;;;;;;;15.40;4.40;;;;;;;6.56;100.00;100459.44;10568947;28;20043;-87
2023/03/26 01:20:10;;;;;;;18.02;4.07;;;;;;;6.57;100.00;100485.72;10578184;27;20035;-86
2023/03/26 01:25:11;;;;;;;15.50;4.10;;;;;;;6.25;100.00;100442.31;10566967;28;20051;-86
2023/03/26 01:30:28;;;;;;;19.52;4.25;;;;;;;6.43;100.00;100473.38;10578079;28;20048;-86
2023/03/26 01:35:53;;;;;;;16.58;3.75;;;;;;;6.46;100.00;100476.44;10575079;28;20054;-86
2023/03/26 01:41:17;;;;;;;18.95;3.38;;;;;;;6.48;100.00;100476.22;10540932;28;20036;-87
2023/03/26 01:46:20;;;;;;;20.65;3.30;;;;;;;6.43;100.00;100460.53;10558728;28;20048;-80
2023/03/26 01:51:28;;;;;;;19.10;4.40;;;;;;;6.42;100.00;100453.38;10544186;28;20178;-86
2023/03/26 01:56:42;;;;;;;23.70;3.75;;;;;;;6.37;100.00;100460.63;10535541;28;20102;-86
2023/03/26 02:01:56;;;;;;;17.20;2.50;;;;;;;6.41;100.00;100468.13;10545958;28;20077;-87
2023/03/26 02:07:11;;;;;;;21.60;3.67;;;;;;;6.23;100.00;100444.44;10565626;28;20039;-87
2023/03/26 02:12:13;;;;;;;15.70;2.75;;;;;;;6.25;100.00;100464.19;10565822;28;20043;-86
2023/03/26 02:17:13;;;;;;;11.98;2.80;;;;;;;6.13;100.00;100449.66;10582430;28;20032;-86
2023/03/26 02:22:16;;;;;;;18.27;4.22;;;;;;;5.99;100.00;100440.84;10583457;27;20047;-86
2023/03/26 02:27:17;;;;;;;24.48;5.40;;;;;;;6.06;100.00;100454.41;10545896;27;20075;-85
2023/03/26 02:32:18;;;;;;;16.35;3.17;;;;;;;5.94;100.00;100439.88;10589740;27;20046;-86
2023/03/26 02:37:20;;;;;;;22.75;3.08;;;;;;;5.91;100.00;100443.06;10554520;27;20035;-87
2023/03/26 02:42:20;;;;;;;19.30;3.72;;;;;;;5.78;100.00;100428.53;10538161;28;20032;-86
2023/03/26 02:47:21;;;;;;;17.75;4.15;;;;;;;5.75;100.00;100441.84;10519775;28;20085;-86
2023/03/26 02:52:23;;;;;;;12.98;4.78;;;;;;;5.77;100.00;100445.19;10531028;28;20548;-86
2023/03/26 02:57:23;;;;;;;12.43;3.45;;;;;;;5.80;100.00;100442.78;10539873;28;20027;-86
2023/03/26 03:02:24;;;;;;;14.25;3.65;;;;;;;5.85;100.00;100442.09;10548507;28;20083;-86
2023/03/26 03:07:25;;;;;;;20.15;3.47;;;;;;;5.74;100.00;100423.78;10531168;27;20478;-85
2023/03/26 03:12:25;;;;;;;19.45;3.60;;;;;;;5.89;100.00;100428.78;10589773;27;20070;-82
2023/03/26 03:17:26;;;;;;;34.13;5.05;;;;;;;5.88;100.00;100425.22;10592119;27;20044;-86
2023/03/26 03:22:26;;;;;;;19.00;4.20;;;;;;;5.88;100.00;100429.88;10590497;27;20028;-87
2023/03/26 03:27:27;;;;;;;22.92;4.00;;;;;;;5.89;100.00;100421.44;10586544;27;20028;-86
2023/03/26 03:32:27;;;;;;;16.88;3.08;;;;;;;5.63;100.00;100373.53;10606926;27;20031;-86
2023/03/26 03:37:28;;;;;;;17.58;4.15;;;;;;;5.91;100.00;100413.00;10593908;27;20035;-86
2023/03/26 03:42:30;;;;;;;20.98;3.20;;;;;;;5.92;100.00;100407.31;10586782;27;20032;-87
2023/03/26 03:47:30;;;;;;;19.65;4.45;;;;;;;5.89;100.00;100404.19;10589446;27;20040;-86
2023/03/26 03:52:31;;;;;;;25.70;4.60;;;;;;;5.91;100.00;100396.59;10572391;28;20043;-86
2023/03/26 03:57:32;;;;;;;23.33;3.83;;;;;;;5.90;100.00;100394.94;10571493;28;20044;-85
2023/03/26 04:02:33;;;;;;;22.25;5.53;;;;;;;5.83;100.00;100393.16;10553331;27;20395;-87
2023/03/26 04:07:34;;;;;;;18.85;3.08;;;;;;;5.62;100.00;100360.91;10570124;27;20043;-86
2023/03/26 04:12:34;;;;;;;18.20;3.55;;;;;;;5.78;100.00;100392.19;10554943;27;20063;-86
2023/03/26 04:17:41;;;;;;;24.27;3.83;;;;;;;5.74;100.00;100400.00;10587512;27;20487;-86
2023/03/26 04:22:42;;;;;;;20.42;3.90;;;;;;;5.64;100.00;100400.59;10568381;28;20032;-86
2023/03/26 04:27:43;;;;;;;29.27;3.92;;;;;;;5.52;100.00;100393.41;10551454;28;20043;-87
2023/03/26 04:32:44;;;;;;;14.10;3.58;;;;;;;5.47;100.00;100397.69;10587252;27;20416;-87
2023/03/26 04:37:45;;;;;;;24.98;4.95;;;;;;;5.31;100.00;100381.13;10525520;27;20066;-86
2023/03/26 04:42:46;;;;;;;17.95;3.42;;;;;;;5.28;100.00;100393.34;10551940;27;20039;-87
2023/03/26 04:47:47;;;;;;;22.88;4.97;;;;;;;5.20;100.00;100397.22;10565889;28;20091;-86
2023/03/26 04:52:48;;;;;;;16.58;4.32;;;;;;;5.20;100.00;100402.69;10570435;27;20016;-87
2023/03/26 04:57:49;;;;;;;17.42;4.38;;;;;;;5.28;100.00;100398.81;10585426;28;20169;-83
2023/03/26 05:02:52;;;;;;;16.98;3.58;;;;;;;5.34;100.00;100389.69;10571649;27;20032;-86
2023/03/26 05:07:53;;;;;;;13.95;3.95;;;;;;;5.30;100.00;100388.50;10585988;27;20480;-87
2023/03/26 05:12:53;;;;;;;19.98;3.97;;;;;;;5.39;100.00;100400.72;10544705;28;20065;-86
2023/03/26 05:17:55;;;;;;;35.03;6.80;;;;;;;5.44;100.00;100397.34;10543727;28;20025;-86
2023/03/26 05:22:56;;;;;;;17.63;3.33;;;;;;;5.46;100.00;100396.03;10510295;28;20032;-86
2023/03/26 05:27:58;;;;;;;14.82;3.13;;;;;;;5.49;100.00;100410.28;10539637;27;20131;-87
2023/03/26 05:32:58;;;;;;;13.15;3.75;;;;;;;5.49;100.00;100393.91;10548425;27;20028;-87
2023/03/26 05:37:59;;;;;;;15.38;3.15;;;;;;;5.52;100.00;100396.16;10550362;28;20063;-86
2023/03/26 05:43:00;;;;;;;17.42;4.28;;;;;;;5.45;100.00;100388.88;10560828;28;20100;-86
2023/03/26 05:48:02;;;;;;;13.25;2.75;;;;;;;5.50;100.00;100395.56;10538552;28;20088;-85
2023/03/26 05:53:02;;;;;;;22.63;4.40;;;;;;;5.43;100.00;100371.09;10588150;28;20031;-86
2023/03/26 05:58:03;;;;;;;26.50;6.00;;;;;;;5.39;100.00;100361.69;10593687;27;20051;-86
2023/03/26 06:03:04;;;;;;;19.02;4.20;;;;;;;5.60;100.00;100387.63;10592067;27;20108;-86
2023/03/26 06:08:05;;;;;;;15.77;2.95;;;;;;;5.67;100.00;100393.84;10590431;28;20502;-86
2023/03/26 06:13:06;;;;;;;13.10;2.88;;;;;;;5.70;100.00;100382.44;10591959;27;20439;-86
2023/03/26 06:18:06;;;;;;;18.02;3.75;;;;;;;5.74;100.00;100369.16;10591758;28;20356;-85
2023/03/26 06:23:07;;;;;;;24.77;3.75;;;;;;;5.82;100.00;100366.91;10592729;27;20032;-86
2023/03/26 06:28:07;;;;;;;19.15;3.22;;;;;;;5.96;100.00;100364.81;10594896;27;20051;-86
2023/03/26 06:33:08;;;;;;;22.23;3.17;;;;;;;5.94;100.00;100346.97;10592068;27;20112;-87
2023/03/26 06:38:09;;;;;;;19.88;3.13;;;;;;;6.07;100.00;100358.50;10571487;27;20197;-86
2023/03/26 06:43:10;;;;;;;21.98;2.95;;;;;;;6.16;100.00;100367.22;10554037;27;20095;-85
2023/03/26 06:48:11;;;;;;;11.35;2.25;;;;;;;6.25;100.00;100365.75;10573708;27;20023;-87
2023/03/26 06:53:11;;;;;;;15.75;2.50;;;;;;;6.34;100.00;100363.50;10571910;27;20043;-86
2023/03/26 06:58:12;;;;;;;12.38;2.72;;;;;;;6.46;100.00;100374.44;10588037;27;20027;-87
2023/03/26 07:03:12;;;;;;;11.02;2.45;;;;;;;6.46;100.00;100364.31;10571325;28;20020;-87
2023/03/26 07:08:13;;;;;;;18.38;2.30;;;;;;;6.38;100.00;100336.50;10585588;28;20040;-87
2023/03/26 07:13:13;;;;;;;11.18;1.77;;;;;;;6.61;100.00;100369.28;10587479;27;20028;-86
2023/03/26 07:18:14;;;;;;;12.48;3.90;;;;;;;6.66;100.00;100358.47;10589893;27;20031;-83
2023/03/26 07:23:18;;;;;;;13.20;2.40;;;;;;;6.30;100.00;100287.69;10571017;27;20040;-86
2023/03/26 07:28:25;;;;;;;15.00;2.53;;;;;;;6.79;100.00;100349.16;10588618;27;20031;-86
2023/03/26 07:33:54;;;;;;;10.48;2.17;;;;;;;6.77;100.00;100329.41;10582494;28;20067;-87
2023/03/26 07:39:02;;;;;;;13.38;3.85;;;;;;;6.89;100.00;100336.78;10553948;27;20048;-86
2023/03/26 07:44:24;;;;;;;13.95;2.53;;;;;;;7.01;100.00;100346.59;10587438;27;20062;-88
2023/03/26 07:49:25;;;;;;;9.82;2.25;;;;;;;7.05;100.00;100336.81;10586604;27;20252;-86
2023/03/26 07:54:26;;;;;;;9.98;1.90;;;;;;;7.15;100.00;100340.81;10570236;27;20039;-86
2023/03/26 07:59:26;;;;;;;6.63;1.65;;;;;;;7.33;100.00;100328.84;10585367;27;20475;-87
2023/03/26 08:04:35;;;;;;;13.07;2.90;;;;;;;7.50;100.00;100326.94;10589665;27;20035;-88
2023/03/26 08:10:07;;;;;;;14.18;2.75;;;;;;;7.70;100.00;100325.66;10589246;27;20031;-87
2023/03/26 08:15:32;;;;;;;18.92;2.83;;;;;;;7.65;100.00;100309.97;10587153;27;20043;-88
2023/03/26 08:20:40;;;;;;;17.10;3.08;;;;;;;7.69;100.00;100308.38;10529024;27;20043;-86
2023/03/26 08:25:49;;;;;;;20.23;2.88;;;;;;;7.82;100.00;100323.66;10537981;27;20035;-88
2023/03/26 08:30:53;;;;;;;11.73;2.25;;;;;;;7.78;100.00;100317.84;10554196;27;20031;-87
2023/03/26 08:35:54;;;;;;;17.90;4.35;;;;;;;7.93;100.00;100327.38;10578348;27;20099;-87
2023/03/26 08:41:03;;;;;;;14.15;2.92;;;;;;;8.02;100.00;100331.34;10599459;27;20042;-88
2023/03/26 08:46:10;;;;;;;17.90;3.30;;;;;;;8.19;100.00;100329.44;10584862;27;20098;-87
2023/03/26 08:51:17;;;;;;;12.10;3.20;;;;;;;8.35;100.00;100343.34;10577334;27;20047;-85
2023/03/26 08:56:28;;;;;;;14.48;4.47;;;;;;;8.27;100.00;100303.50;10584935;27;20058;-86
2023/03/26 09:01:57;;;;;;;12.55;2.53;;;;;;;8.44;100.00;100312.53;10564928;27;20534;-87
2023/03/26 09:07:08;;;;;;;12.20;2.38;;;;;;;8.48;100.00;100329.31;10581125;28;20039;-88
2023/03/26 09:12:17;;;;;;;12.65;2.25;;;;;;;8.62;100.00;100333.34;10583412;28;20463;-86
2023/03/26 09:17:50;;;;;;;21.05;2.78;;;;;;;8.81;100.00;100333.84;10581063;27;20058;-87
2023/03/26 09:23:05;;;;;;;13.85;2.20;;;;;;;9.26;100.00;100318.13;10580205;27;20101;-88
2023/03/26 09:28:08;;;;;;;10.20;2.55;;;;;;;8.98;100.00;100324.72;10595586;27;20092;-87
2023/03/26 09:33:32;;;;;;;12.48;2.40;;;;;;;8.91;100.00;100335.91;10582386;27;20372;-87
2023/03/26 09:38:52;;;;;;;17.25;2.53;;;;;;;8.87;100.00;100329.25;10555400;28;20043;-81
2023/03/26 09:44:17;;;;;;;12.93;2.10;;;;;;;9.21;100.00;100331.81;10598927;28;20039;-86
2023/03/26 09:49:23;;;;;;;20.45;2.72;;;;;;;8.77;100.00;100342.84;10582293;28;20319;-85
2023/03/26 09:54:32;;;;;;;16.27;3.22;;;;;;;8.83;100.00;100336.34;10583275;28;20035;-87
2023/03/26 09:59:56;;;;;;;16.63;1.80;;;;;;;8.84;100.00;100336.06;10574783;28;20055;-86
2023/03/26 10:05:06;;;;;;;12.82;2.00;;;;;;;9.06;100.00;100352.53;10590476;28;20135;-87
2023/03/26 10:10:25;;;;;;;13.27;2.20;;;;;;;9.05;100.00;100359.13;10585364;28;20039;-88
2023/03/26 10:15:49;;;;;;;16.95;2.80;;;;;;;9.11;100.00;100351.75;10586894;28;20125;-87
2023/03/26 10:21:07;;;;;;;11.93;2.10;;;;;;;9.11;100.00;100361.91;10569767;28;20149;-82
2023/03/26 10:26:29;;;;;;;13.13;2.33;;;;;;;8.75;100.00;100298.38;10600670;28;20040;-87
2023/03/26 10:31:41;;;;;;;11.82;1.95;;;;;;;9.24;100.00;100328.53;10586145;28;20417;-87
2023/03/26 10:37:12;;;;;;;10.57;2.55;;;;;;;9.22;100.00;100337.06;10600470;27;20078;-87
2023/03/26 10:42:39;;;;;;;7.90;1.70;;;;;;;8.78;100.00;100278.63;10585741;27;20039;-88
2023/03/26 10:48:10;;;;;;;24.17;2.38;;;;;;;9.41;100.00;100347.69;10592423;27;20040;-87
2023/03/26 10:53:24;;;;;;;16.60;2.60;;;;;;;9.76;100.00;100341.69;10565437;27;20036;-88
2023/03/26 10:58:28;;;;;;;9.27;1.80;;;;;;;9.81;100.00;100321.66;10556255;27;20035;-86
2023/03/26 11:03:50;;;;;;;12.43;2.25;;;;;;;9.68;100.00;100339.41;10555571;28;20032;-88
2023/03/26 11:08:57;;;;;;;8.52;2.28;;;;;;;9.26;100.00;100343.69;10570887;27;20118;-87
2023/03/26 11:14:49;;;;;;;13.77;1.83;;;;;;;9.02;100.00;100342.34;10588625;27;20032;-86
2023/03/26 11:19:53;;;;;;;15.48;2.03;;;;;;;9.19;100.00;100354.03;10545530;27;20036;-87
2023/03/26 11:25:09;;;;;;;18.15;2.80;;;;;;;9.44;100.00;100355.41;10589326;27;20043;-87
2023/03/26 11:30:47;;;;;;;17.17;2.10;;;;;;;10.07;100.00;100347.44;10589331;27;20032;-88
2023/03/26 11:35:49;;;;;;;14.38;2.30;;;;;;;10.84;100.00;100339.66;10588302;27;20095;-88
2023/03/26 11:40:52;;;;;;;15.35;1.88;;;;;;;11.00;100.00;100333.09;10565688;27;20518;-88
2023/03/26 11:45:53;;;;;;;13.40;1.77;;;;;;;10.84;97.46;100334.13;10570249;27;20043;-89
2023/03/26 11:51:09;;;;;;;14.77;2.33;;;;;;;9.84;98.40;100321.97;10551992;27;20414;-89
2023/03/26 11:56:32;;;;;;;13.45;2.35;;;;;;;9.66;97.24;100355.34;10571502;27;20028;-88
2023/03/26 12:01:54;;;;;;;9.88;1.70;;;;;;;9.36;100.00;100375.91;10569384;27;20062;-86
2023/03/26 12:07:22;;;;;;;17.92;3.95;;;;;;;9.46;100.00;100356.78;10583631;27;20028;-88
2023/03/26 12:12:30;;;;;;;10.73;1.50;;;;;;;10.40;100.00;100370.25;10570118;27;20055;-87
2023/03/26 12:17:35;;;;;;;12.85;2.00;;;;;;;10.36;96.36;100360.88;10585243;27;20091;-87
2023/03/26 12:22:37;;;;;;;7.15;1.50;;;;;;;10.17;97.41;100358.50;10586405;27;20143;-88
2023/03/26 12:27:41;;;;;;;9.88;2.03;;;;;;;9.96;95.05;100373.19;10585193;27;20031;-87
2023/03/26 12:32:43;;;;;;;16.52;2.50;;;;;;;10.09;97.81;100361.75;10586091;27;20035;-87
2023/03/26 12:37:44;;;;;;;10.20;1.83;;;;;;;10.32;92.34;100357.00;10585878;27;20054;-87
2023/03/26 12:42:50;;;;;;;11.38;1.67;;;;;;;10.10;96.13;100353.22;10567453;27;20126;-87
2023/03/26 12:47:51;;;;;;;11.50;2.65;;;;;;;10.10;95.57;100377.97;10573404;27;20036;-86
2023/03/26 12:53:22;;;;;;;9.90;1.80;;;;;;;9.83;96.77;100363.47;10589939;27;20036;-86
2023/03/26 12:58:41;;;;;;;13.18;1.80;;;;;;;9.69;96.77;100385.03;10580624;27;20071;-87
2023/03/26 13:04:00;;;;;;;14.82;1.83;;;;;;;9.88;97.66;100391.00;10571244;27;20077;-88
2023/03/26 13:09:26;;;;;;;12.75;2.60;;;;;;;10.96;94.16;100370.53;10581276;28;20044;-88
2023/03/26 13:14:42;;;;;;;11.98;1.98;;;;;;;10.62;93.33;100359.91;10545966;28;20059;-86
2023/03/26 13:20:31;;;;;;;9.77;1.53;;;;;;;11.40;90.49;100370.13;10542666;28;20119;-87
2023/03/26 13:25:46;;;;;;;9.05;1.35;;;;;;;11.43;90.80;100375.09;10397281;28;20042;-86
2023/03/26 13:31:00;;;;;;;7.25;1.27;;;;;;;10.81;88.83;100362.19;10496110;28;20032;-86
2023/03/26 13:36:06;;;;;;;11.02;2.90;;;;;;;10.43;89.91;100365.03;10573748;28;20043;-86
2023/03/26 13:41:08;;;;;;;8.52;2.17;;;;;;;10.35;89.75;100370.22;10582515;28;20036;-87
2023/03/26 13:46:15;;;;;;;13.98;1.92;;;;;;;10.15;92.74;100399.22;10581582;28;20469;-87
2023/03/26 13:51:33;;;;;;;8.98;1.90;;;;;;;10.39;98.38;100393.34;10580293;28;20134;-86
2023/03/26 13:56:37;;;;;;;8.25;1.52;;;;;;;11.61;94.05;100365.47;10566238;28;20403;-88
2023/03/26 14:01:42;;;;;;;9.57;1.80;;;;;;;11.94;91.63;100395.59;10558465;28;20048;-86
2023/03/26 14:06:52;;;;;;;9.00;1.88;;;;;;;10.99;91.36;100403.03;10578534;28;20036;-87
2023/03/26 14:12:15;;;;;;;11.32;1.63;;;;;;;10.43;93.77;100416.50;10584144;28;20074;-86
2023/03/26 14:17:25;;;;;;;15.55;1.90;;;;;;;9.63;93.69;100408.94;10594141;27;20123;-83
2023/03/26 14:22:41;;;;;;;6.82;1.50;;;;;;;9.49;95.86;100426.91;10576043;27;20043;-86
2023/03/26 14:27:57;;;;;;;10.80;2.20;;;;;;;9.17;96.46;100437.78;10557556;28;20106;-85
2023/03/26 14:33:16;;;;;;;9.88;2.30;;;;;;;9.22;92.74;100429.59;10553229;28;20047;-87
2023/03/26 14:38:39;;;;;;;9.65;1.75;;;;;;;10.19;94.10;100441.59;10593371;27;20048;-88
2023/03/26 14:43:48;;;;;;;10.98;2.20;;;;;;;10.80;89.47;100429.41;10607116;27;20069;-87
2023/03/26 14:49:10;;;;;;;15.90;1.80;;;;;;;10.56;88.08;100432.53;10593094;27;20040;-87
2023/03/26 14:54:12;;;;;;;11.40;1.75;;;;;;;9.31;87.37;100433.56;10592014;27;20100;-95
2023/03/26 14:59:24;;;;;;;11.35;2.40;;;;;;;9.81;88.85;100440.69;10605889;27;20042;-95
2023/03/26 15:04:40;;;;;;;10.15;2.08;;;;;;;11.62;84.71;100438.00;10626668;27;20069;-96
2023/03/26 15:09:59;;;;;;;8.10;1.70;;;;;;;12.75;84.08;100438.03;10599477;27;20058;-96
2023/03/26 15:15:19;;;;;;;8.52;2.00;;;;;;;12.74;76.86;100433.63;10603350;27;20070;-95
2023/03/26 15:20:25;;;;;;;11.98;1.80;;;;;;;11.76;78.29;100450.16;10602602;27;20038;-95
2023/03/26 15:25:51;;;;;;;13.20;2.10;;;;;;;12.05;82.98;100468.97;10615538;27;20035;-95
2023/03/26 15:31:05;;;;;;;10.33;2.00;;;;;;;12.22;81.53;100455.75;10568175;27;20028;-91
2023/03/26 15:36:12;;;;;;;9.88;1.65;;;;;;;11.00;78.47;100475.50;10602674;27;20073;-92
2023/03/26 15:41:24;;;;;;;11.52;1.83;;;;;;;9.81;86.09;100497.59;10604562;27;20051;-96
2023/03/26 15:46:32;;;;;;;11.85;1.80;;;;;;;9.50;87.10;100498.09;10600183;28;20344;-96
2023/03/26 15:51:54;;;;;;;11.00;1.58;;;;;;;9.21;85.80;100521.34;10592058;27;20620;-91
2023/03/26 15:57:20;;;;;;;8.57;1.80;;;;;;;7.97;89.04;100517.69;10565249;27;20043;-93
2023/03/26 16:03:11;;;;;;;13.13;1.90;;;;;;;9.06;90.51;100525.53;10556772;27;20047;-93
2023/03/26 16:08:24;;;;;;;7.82;1.92;;;;;;;9.81;87.67;100542.41;10549233;27;20031;-94
2023/03/26 16:13:25;;;;;;;10.20;1.90;;;;;;;10.11;85.97;100546.63;10592273;27;20036;-94
2023/03/26 16:18:28;;;;;;;8.65;1.48;;;;;;;10.51;80.55;100531.59;10601128;27;20066;-96
2023/03/26 16:23:41;;;;;;;16.75;2.13;;;;;;;9.78;83.64;100553.13;10587949;27;20046;-95
2023/03/26 16:28:48;;;;;;;8.05;1.50;;;;;;;8.58;87.13;100568.16;10615816;27;20063;-96
2023/03/26 16:33:54;;;;;;;10.63;2.03;;;;;;;7.93;86.82;100576.81;10590645;28;20058;-93
2023/03/26 16:38:58;;;;;;;;;;;;;;;8.00;89.69;100594.78;10571591;28;20070;-94
2023/03/26 16:44:43;;;;;;;5.82;1.60;;;;;;;7.59;91.51;100602.16;10582482;27;19918;-95
2023/03/26 16:49:58;;;;;;;9.55;1.90;;;;;;;7.39;94.31;100618.97;10612543;27;20027;-95
2023/03/26 16:55:10;;;;;;;11.48;1.85;;;;;;;6.66;94.40;100584.69;10575166;28;20057;-96
2023/03/26 17:00:28;;;;;;;9.68;2.58;;;;;;;6.48;97.52;100656.72;10560593;28;20036;-95
2023/03/26 17:05:42;;;;;;;17.58;3.10;;;;;;;6.28;100.00;100664.34;10557706;28;20043;-96
2023/03/26 17:10:59;;;;;;;14.35;2.25;;;;;;;5.90;99.53;100641.69;10560366;27;20047;-96
2023/03/26 17:16:17;;;;;;;15.40;2.63;;;;;;;5.89;100.00;100682.88;10580574;27;20043;-95
2023/03/26 17:21:31;;;;;;;12.75;2.10;;;;;;;5.61;100.00;100681.50;10536357;28;20043;-96
2023/03/26 17:26:43;;;;;;;9.35;2.10;;;;;;;5.49;100.00;100702.44;10560020;27;20023;-96
2023/03/26 17:31:49;;;;;;;6.90;1.63;;;;;;;5.40;100.00;100715.53;10565054;28;20103;-95
2023/03/26 17:36:57;;;;;;;12.50;2.15;;;;;;;5.31;100.00;100731.34;10594968;28;20066;-96
2023/03/26 17:42:10;;;;;;;16.02;2.03;;;;;;;5.11;100.00;100719.78;10600728;27;20040;-95
2023/03/26 17:47:37;;;;;;;9.20;2.30;;;;;;;5.07;100.00;100737.66;10589946;28;20059;-91
2023/03/26 17:53:05;;;;;;;12.93;1.65;;;;;;;4.94;100.00;100744.03;10569425;27;20028;-95
2023/03/26 17:58:18;;;;;;;10.25;1.42;;;;;;;4.89;100.00;100771.97;10556541;27;20120;-95
2023/03/26 18:03:20;;;;;;;10.50;2.33;;;;;;;4.84;100.00;100774.53;10561387;28;20036;-94
2023/03/26 18:08:26;;;;;;;6.55;1.77;;;;;;;4.74;100.00;100777.72;10559542;27;20035;-95
2023/03/26 18:13:59;;;;;;;11.05;1.80;;;;;;;4.65;100.00;100793.50;10580791;27;20035;-89
2023/03/26 18:19:00;;;;;;;12.25;1.77;;;;;;;4.54;100.00;100799.63;10578622;27;20126;-95
2023/03/26 18:24:01;;;;;;;13.57;2.33;;;;;;;4.43;100.00;100800.31;10569166;27;20399;-94
2023/03/26 18:29:25;;;;;;;8.50;1.67;;;;;;;4.47;100.00;100823.38;10577098;27;20032;-94
2023/03/26 18:34:28;;;;;;;16.15;1.98;;;;;;;4.25;100.00;100798.28;10570746;27;20052;-94
2023/03/26 18:39:28;;;;;;;14.98;2.03;;;;;;;4.32;100.00;100837.25;10593386;27;20039;-94
2023/03/26 18:44:29;;;;;;;10.93;1.40;;;;;;;4.23;100.00;100839.34;10616339;27;20035;-95
2023/03/26 18:49:30;;;;;;;8.30;1.27;;;;;;;4.20;100.00;100849.88;10591718;27;20036;-93
2023/03/26 18:54:33;;;;;;;9.13;1.15;;;;;;;4.10;100.00;100861.19;10608929;27;20027;-93
2023/03/26 18:59:36;;;;;;;13.60;1.55;;;;;;;4.03;100.00;100849.44;10570309;27;20061;-95
2023/03/26 19:04:37;;;;;;;7.95;1.40;;;;;;;3.99;100.00;100859.09;10600247;27;20042;-94
2023/03/26 19:09:37;;;;;;;12.15;1.83;;;;;;;3.89;100.00;100853.25;10576867;27;20096;-95
2023/03/26 19:15:06;;;;;;;7.22;2.60;;;;;;;3.94;100.00;100872.53;10561244;27;20044;-93
2023/03/26 19:20:12;;;;;;;5.05;1.42;;;;;;;3.76;100.00;100854.94;10566543;27;20071;-94
2023/03/26 19:25:31;;;;;;;8.98;1.63;;;;;;;3.75;100.00;100864.16;10576513;27;20040;-94
2023/03/26 19:30:33;;;;;;;9.75;1.67;;;;;;;3.86;100.00;100894.53;10576600;27;20394;-93
2023/03/26 19:35:37;;;;;;;11.57;1.27;;;;;;;3.80;100.00;100885.28;10584624;27;20069;-96
2023/03/26 19:40:39;;;;;;;21.38;3.25;;;;;;;3.89;100.00;100892.22;10579264;27;20023;-93
2023/03/26 19:45:41;;;;;;;7.63;1.33;;;;;;;3.88;100.00;100900.59;10576486;27;20031;-96
2023/03/26 19:50:42;;;;;;;9.80;1.83;;;;;;;3.71;100.00;100892.00;10574077;28;20039;-93
2023/03/26 19:56:17;;;;;;;9.82;1.88;;;;;;;3.75;100.00;100913.16;10532799;28;20107;-94
2023/03/26 20:01:23;;;;;;;5.53;1.65;;;;;;;3.77;100.00;100932.84;10567473;27;20051;-95
2023/03/26 20:06:25;;;;;;;11.45;1.95;;;;;;;3.71;100.00;100927.41;10560547;27;20072;-96
2023/03/26 20:11:32;;;;;;;9.05;1.48;;;;;;;3.77;100.00;100937.47;10575937;27;20030;-91
2023/03/26 20:16:33;;;;;;;12.55;1.75;;;;;;;3.73;100.00;100937.03;10579428;27;20103;-94
2023/03/26 20:21:36;;;;;;;8.68;1.40;;;;;;;3.77;100.00;100937.47;10545542;27;20040;-94
2023/03/26 20:26:38;;;;;;;8.38;1.77;;;;;;;3.83;100.00;100948.38;10543417;28;20035;-96
2023/03/26 20:31:40;;;;;;;10.60;1.25;;;;;;;3.77;100.00;100935.56;10580244;27;20422;-93
2023/03/26 20:36:40;;;;;;;11.80;2.45;;;;;;;3.99;100.00;100959.88;10520140;28;20040;-93
2023/03/26 20:41:44;;;;;;;13.10;2.63;;;;;;;3.91;100.00;100965.56;10568966;28;20070;-94
2023/03/26 20:46:45;;;;;;;9.13;1.98;;;;;;;3.88;100.00;100972.25;10547914;27;20059;-94
2023/03/26 20:51:46;;;;;;;14.38;2.42;;;;;;;3.80;100.00;100967.84;10562831;28;20040;-94
2023/03/26 20:56:47;;;;;;;12.25;2.53;;;;;;;4.00;100.00;100991.53;10572248;27;20502;-93
2023/03/26 21:01:48;;;;;;;14.25;2.00;;;;;;;4.13;100.00;100996.16;10574869;28;20032;-94
2023/03/26 21:06:49;;;;;;;12.40;2.33;;;;;;;4.03;100.00;101004.72;10589648;27;20099;-94
2023/03/26 21:11:55;;;;;;;13.23;2.45;;;;;;;3.95;100.00;101015.81;10583596;28;20028;-93
2023/03/26 21:16:56;;;;;;;6.97;2.10;;;;;;;3.84;100.00;101012.69;10604094;27;20031;-95
2023/03/26 21:22:28;;;;;;;10.38;2.28;;;;;;;3.80;100.00;101016.88;10578439;27;20031;-94
2023/03/26 21:27:40;;;;;;;11.57;2.28;;;;;;;3.75;100.00;101021.25;10567121;28;20091;-95
2023/03/26 21:32:41;;;;;;;12.50;1.63;;;;;;;3.66;100.00;101015.16;10589824;27;20050;-94
2023/03/26 21:37:42;;;;;;;7.72;1.45;;;;;;;3.63;100.00;101037.34;10603198;27;20055;-95
2023/03/26 21:42:46;;;;;;;7.45;1.13;;;;;;;3.42;100.00;101016.53;10541489;28;20124;-95
2023/03/26 21:47:47;;;;;;;8.57;1.55;;;;;;;3.34;100.00;101035.78;10543462;28;20039;-94
2023/03/26 21:52:49;;;;;;;8.60;1.63;;;;;;;3.28;100.00;101036.56;10551607;28;20038;-95
2023/03/26 21:58:11;;;;;;;11.43;1.95;;;;;;;3.31;100.00;101061.50;10548349;28;20031;-94
2023/03/26 22:03:38;;;;;;;11.27;1.50;;;;;;;3.26;100.00;101066.69;10564746;28;20038;-95
2023/03/26 22:08:39;;;;;;;11.80;2.47;;;;;;;3.29;100.00;101077.19;10597334;28;20063;-93
2023/03/26 22:13:39;;;;;;;10.93;1.83;;;;;;;2.09;100.00;100880.75;10588886;27;20054;-79
2023/03/26 22:18:42;;;;;;;6.65;1.45;;;;;;;3.52;100.00;101106.00;10590442;28;20090;-95
2023/03/26 22:23:48;;;;;;;8.60;1.85;;;;;;;3.25;100.00;101081.38;10584286;28;20067;-94
2023/03/26 22:28:49;;;;;;;;;;;;;;;3.29;100.00;101112.56;10598560;28;20066;-93
2023/03/26 22:33:49;;;;;;;7.63;1.75;;;;;;;3.27;100.00;101133.69;10584726;28;19915;-94
2023/03/26 22:38:52;;;;;;;8.40;1.98;;;;;;;3.25;100.00;101119.47;10586416;27;20039;-93
2023/03/26 22:43:53;;;;;;;6.15;1.52;;;;;;;2.86;100.00;101066.47;10603083;27;20031;-94
2023/03/26 22:48:54;;;;;;;8.45;1.75;;;;;;;3.06;100.00;101136.47;10562697;28;20032;-95
2023/03/26 22:53:55;;;;;;;11.57;1.83;;;;;;;2.94;100.00;101144.34;10606153;27;20079;-95
2023/03/26 22:58:55;;;;;;;9.25;1.95;;;;;;;2.41;100.00;101079.50;10562770;27;20039;-94
2023/03/26 23:03:56;;;;;;;7.10;1.40;;;;;;;2.76;100.00;101150.28;10610508;27;20043;-95
2023/03/26 23:08:57;;;;;;;7.80;1.85;;;;;;;2.58;100.00;101167.91;10593325;27;20024;-94
2023/03/26 23:13:58;;;;;;;11.25;2.05;;;;;;;2.41;100.00;101167.28;10605490;27;20039;-93
2023/03/26 23:18:58;;;;;;;10.82;2.10;;;;;;;2.24;100.00;101179.44;10607119;27;20024;-93
2023/03/26 23:23:59;;;;;;;8.48;1.55;;;;;;;2.18;100.00;101202.78;10605231;27;20024;-90
2023/03/26 23:29:01;;;;;;;9.40;1.00;;;;;;;1.57;100.00;101118.06;10593429;27;20055;-95